Grangeville, ID

3:32 AM PST on December 04, 2016 (GMT -0800)
Elk St. | | Change Station
Active Advisory: Winter Weather Advisory

Elev 3460 ft 45.92 °N, 116.13 °W | Updated 10 seconds ago

Overcast
Overcast
36.3 °F
Feels Like 31 °F
N
7.0
Wind Variable Wind from SW
Gusts 21.0 mph

Today
High -- | Low -- °F
--% Chance of Precip.
Yesterday
High -- | Low -- °F
Precip. -- in
Pressure 29.93 in
Visibility 10.0 miles
Clouds Overcast 3500 ft
Windchill 31 °F
Dew Point 31 °F
Humidity 82%
Rainfall 0.00 in
Snow Depth Not available.
7:09 AM 4:00 PM
Waxing Crescent, 22% visible
METAR KGIC 041115Z AUTO 21018G24KT 10SM OVC035 02/00 A2993 RMK AO1
Pressure 29.93 in
Visibility 10.0 miles
Clouds Overcast 3500 ft
Windchill 31 °F
Dew Point 31 °F
Humidity 82%
Rainfall 0.00 in
Snow Depth Not available.
7:09 AM 4:00 PM
Waxing Crescent, 22% visible
METAR KGIC 041115Z AUTO 21018G24KT 10SM OVC035 02/00 A2993 RMK AO1

10-Day Weather Forecast

Almanac

Astronomy

Dec. 04, 2016 Rise Set
Actual Time
Civil Twilight
Nautical Twilight
Astronomical Twilight
Moon
Length of Visible Light
Length of Day
Tomorrow will be .
, % of the Moon is Illuminated

Today's Extremes

State Highs State Lows

Community

WunderPhotos

Upload Photos

1,955,593 photos uploaded!

WunderBlog® & News

Nearby

Air Quality

  Air Quality AQ Index Pollutant
Not available.

Snow Depth

Station Depth Elevation

Earthquake Activity

City Distance Mag. Time & Date
Minimum magnitude displayed is 2.5.

Coastal Water Temperatures

Place Temperature

Stations

Nearby Weather Stations

Station Location Temp. Windchill Dew Point Humidity Wind Precip. Elev Updated Type
                   

Watches & Warnings

Winter Weather Advisory
Issued: 7:42 PM PST Dec. 3, 2016 – National Weather Service

... Winter Weather Advisory remains in effect from 11 PM this
evening to 10 am PST Monday above 3000 feet...

* impacts/timing: snow will return to the region this evening,
with the heavier intensities expected Sunday afternoon. The
lower elevations around Grangeville may start out as rain,
then turning to snow late Sunday morning. With the combination
of snow covered roads and snow on wet roads, travel conditions
could become hazardous at times. Snow fall could continue into
the first part of Monday.

* Snow accumulations by Sunday night: 3 to 6 inches for lower
elevations around Grangeville. 6 to 12 inches for elevations
of 4000 feet and above.

* Locations impacted include: Camas Prairie, Grangeville and
vicinity, and White Bird grade